• Join FlightAware (Why Join?)
  • Login
  • US Flag 
06:49PM EST


 

Airport Tracker/Info


-or-


 

Live Flight TrackerFlight Track Log ✈ EJA727 ✈ 04-May-2013 ✈ KHOU - KOKC

Flight Track Log - Related Links

Times and Time Zones

All times are in EDT time to prevent confusion due to time zone crossing. See the EJA727 flight status page for this flight to view local times or setup timezone preferences in your user account.

Time Position Orientation Groundspeed Altitude Reporting Facility
EDT Latitude Longitude Course Direction KTS MPH feet Rate Location/Type
04:01PM 29.6564 -95.2889 340° North 153 176 900  Level Houston Center
04:02PM 29.6958 -95.3058 340° North 200 230 4,200 3,540 Climbing Houston Center
04:03PM 29.7786 -95.3206 351° North 257 296 8,200 3,300 Climbing Houston Center
04:04PM 29.8489 -95.3511 339° North 268 308 11,700 3,180 Climbing Houston Center
04:05PM 29.9228 -95.3842 339° North 280 322 14,800 2,940 Climbing Houston Center
04:06PM 29.9964 -95.4158 340° North 284 327 17,800 2,640 Climbing Houston Center
04:07PM 30.0792 -95.4528 339° North 313 360 20,300 2,040 Climbing Houston Center
04:08PM 30.1742 -95.4939 339° North 358 412 22,100 1,680 Climbing Houston Center
04:09PM 30.2803 -95.5344 342° North 395 455 23,800 1,560 Climbing Houston Center
04:10PM 30.3900 -95.5767 342° North 411 473 25,300 1,680 Climbing Houston Center
04:11PM 30.5289 -95.6061 350° North 427 491 27,300 1,740 Climbing Houston Center
04:12PM 30.6522 -95.6064 360° North 440 506 28,900 1,500 Climbing Houston Center
04:13PM 30.7694 -95.6047 North 435 501 30,400 1,200 Climbing Houston Center
04:14PM 30.8861 -95.6278 350° North 425 489 31,400 960 Climbing Houston Center
04:15PM 31.0011 -95.6747 341° North 426 490 32,400 900 Climbing Houston Center
04:16PM 31.1125 -95.7203 341° North 424 488 33,300 900 Climbing Houston Center
04:17PM 31.2025 -95.7569 341° North 421 484 34,000 360 Climbing Fort Worth Center
04:18PM 31.3136 -95.8036 340° North 426 490 34,000  Level Fort Worth Center
04:19PM 31.4292 -95.8528 340° North 433 498 34,000  Level Fort Worth Center
04:20PM 31.5531 -95.9044 340° North 433 498 34,000  Level Fort Worth Center
04:21PM 31.6664 -95.9536 340° North 433 498 34,000  Level Fort Worth Center
04:22PM 31.7775 -96.0008 340° North 433 498 34,000  Level Fort Worth Center
04:23PM 31.8908 -96.0506 340° North 427 491 34,000  Level Fort Worth Center
04:24PM 32.0039 -96.0978 340° North 428 493 34,000  Level Fort Worth Center
04:25PM 32.1153 -96.1503 338° Northwest 435 501 34,000  Level Fort Worth Center
04:26PM 32.2242 -96.1928 342° North 420 483 34,000  Level Fort Worth Center
04:27PM 32.3331 -96.2431 339° North 420 483 34,000  Level Fort Worth Center
04:28PM 32.4339 -96.2861 340° North 420 483 34,000  Level Fort Worth Center
04:29PM 32.5511 -96.3389 339° North 420 483 34,000  Level Fort Worth Center
04:30PM 32.6539 -96.3819 341° North 415 478 34,000  Level Fort Worth Center
04:31PM 32.7711 -96.4350 339° North 410 472 34,000  Level Fort Worth Center
04:32PM 32.8675 -96.4761 340° North 410 472 34,000  Level Fort Worth Center
04:33PM 32.9639 -96.5197 339° North 418 481 34,000  Level Fort Worth Center
04:34PM 33.0917 -96.5753 340° North 433 498 34,000  Level Fort Worth Center
04:35PM 33.2089 -96.6289 339° North 422 486 34,000  Level Fort Worth Center
04:36PM 33.3197 -96.6775 340° North 416 479 34,000  Level Fort Worth Center
04:37PM 33.4264 -96.7239 340° North 411 473 34,000 -180 Level Fort Worth Center
04:38PM 33.5331 -96.7731 339° North 411 473 33,700 -1,140 Descending Fort Worth Center
04:39PM 33.6294 -96.8147 340° North 411 473 31,800 -2,100 Descending Fort Worth Center
04:40PM 33.7444 -96.8664 340° North 411 473 29,600 -2,100 Descending Fort Worth Center
04:41PM 33.8469 -96.9158 338° Northwest 411 473 27,600 2,160 Descending Fort Worth Center
04:42PM 33.9533 -96.9628 340° North 400 460 34,000 -840 Climbing Fort Worth Center
04:43PM 34.0581 -97.0122 339° North 400 460 26,000 -4,560 Descending Fort Worth Center
04:44PM 34.1686 -97.0619 340° North 406 467 24,900 -1,020 Descending Fort Worth Center
04:45PM 34.2772 -97.1094 340° North 411 473 24,000 -1,440 Descending Fort Worth Center
04:46PM 34.3817 -97.1569 339° North 411 473 22,100 -2,160 Descending Fort Worth Center
04:47PM 34.4800 -97.2044 338° Northwest 393 452 19,700 -2,460 Descending Fort Worth Center
04:48PM 34.5739 -97.2472 339° North 377 434 17,200 -2,400 Descending Fort Worth Center
04:49PM 34.6678 -97.2897 340° North 367 422 14,900 -2,160 Descending Fort Worth Center
04:50PM 34.7283 -97.3175 339° North 338 389 13,600 -2,040 Descending Fort Worth Center
04:50PM 34.7556 -97.3303 339° North 350 403 12,900 -1,680 Descending Fort Worth Center
04:51PM 34.8139 -97.3553 341° North 328 377 11,900 -1,500 Descending Fort Worth Center
04:51PM 34.8431 -97.3681 340° North 337 388 11,400 -1,440 Descending Fort Worth Center
04:52PM 34.9056 -97.3983 338° Northwest 324 373 10,300 -1,560 Descending Fort Worth Center
04:53PM 34.9850 -97.4364 339° North 249 287 8,500 -1,500 Descending Fort Worth Center
04:54PM 35.0558 -97.4667 341° North 260 299 7,100 -780 Descending Fort Worth Center
04:55PM 35.1183 -97.4972 338° Northwest 245 282 6,900 -120 Descending Fort Worth Center
04:56PM 35.1706 -97.5203 340° North 245 282 6,900  Level Fort Worth Center
04:57PM 35.2183 -97.5458 336° Northwest 243 280 6,900  Level Fort Worth Center
04:57PM 35.2392 -97.5533 344° North 240 276 6,900 -1,260 Level Fort Worth Center
04:58PM 35.3039 -97.5839 339° North 234 269 5,300 -1,440 Descending Fort Worth Center
04:59PM 35.3622 -97.6094 340° North 218 251 4,100 -720 Descending Fort Worth Center
05:00PM 35.4081 -97.6300 340° North 214 246 3,900 -660 Descending Fort Worth Center
05:01PM 35.4561 -97.6456 345° North 188 216 2,800 -1,140 Descending Fort Worth Center
05:02PM 35.4997 -97.6506 355° North 151 174 1,800 -720 Descending Fort Worth Center
05:03PM 35.5456 -97.6586 352° North 157 181 1,400 -420 Descending Fort Worth Center
05:05PM 35.4217 -97.6138 164° South  Level FlightAware Approximate